createdAt,value
2019-04-26T00:01:02.190Z,18.89
2019-04-26T00:03:44.726Z,18.74
2019-04-26T00:06:14.640Z,18.90
2019-04-26T00:08:44.881Z,18.64
2019-04-26T00:11:18.378Z,18.71
2019-04-26T00:14:00.389Z,18.86
2019-04-26T00:16:30.577Z,18.70
2019-04-26T00:18:59.250Z,18.86
2019-04-26T00:21:27.809Z,18.85
2019-04-26T00:23:56.744Z,18.66
2019-04-26T00:26:25.487Z,18.54
2019-04-26T00:28:54.004Z,18.55
2019-04-26T00:31:22.512Z,18.05
2019-04-26T00:33:51.023Z,17.71
2019-04-26T00:36:20.768Z,18.48
2019-04-26T00:38:49.505Z,18.85
2019-04-26T00:41:18.658Z,19.29
2019-04-26T00:43:47.422Z,19.22
2019-04-26T00:46:17.042Z,19.07
2019-04-26T00:48:46.529Z,19.27
2019-04-26T00:51:17.280Z,19.32
2019-04-26T00:53:48.366Z,19.09
2019-04-26T00:56:17.998Z,18.87
2019-04-26T00:58:47.097Z,18.92
2019-04-26T01:01:17.288Z,18.86
2019-04-26T01:03:46.017Z,19.23
2019-04-26T01:06:17.035Z,19.47
2019-04-26T01:08:45.588Z,19.33
2019-04-26T01:11:16.173Z,19.15
2019-04-26T01:13:44.343Z,19.16
2019-04-26T01:16:12.878Z,18.99
2019-04-26T01:18:43.011Z,18.97
2019-04-26T01:21:12.835Z,18.89
2019-04-26T01:23:43.810Z,18.89
2019-04-26T01:26:19.149Z,18.79
2019-04-26T01:28:56.876Z,17.92
2019-04-26T01:31:28.689Z,17.71
2019-04-26T01:33:57.358Z,18.20
2019-04-26T01:36:29.422Z,18.39
2019-04-26T01:39:01.022Z,18.17
2019-04-26T01:41:34.392Z,17.94
2019-04-26T01:44:21.774Z,17.94
2019-04-26T01:46:52.037Z,17.92
2019-04-26T01:49:24.160Z,17.64
2019-04-26T01:52:10.517Z,17.22
2019-04-26T01:54:44.582Z,17.26
2019-04-26T01:57:14.313Z,17.30
2019-04-26T01:59:47.521Z,17.88
2019-04-26T02:02:35.732Z,17.06
2019-04-26T02:05:10.056Z,17.75
2019-04-26T02:07:39.037Z,17.51
2019-04-26T02:10:13.419Z,18.13
2019-04-26T02:12:44.604Z,18.11
2019-04-26T02:15:12.688Z,18.26
2019-04-26T02:17:42.531Z,18.80
2019-04-26T02:20:12.110Z,19.19
2019-04-26T02:22:45.777Z,18.98
2019-04-26T02:25:14.397Z,18.99
2019-04-26T02:27:43.066Z,18.88
2019-04-26T02:30:11.713Z,19.14
2019-04-26T02:32:40.872Z,18.90
2019-04-26T02:35:09.903Z,18.54
2019-04-26T02:37:39.031Z,18.01
2019-04-26T02:40:13.322Z,18.05
2019-04-26T02:42:43.765Z,17.49
2019-04-26T02:45:28.321Z,17.44
2019-04-26T02:48:15.371Z,17.45
2019-04-26T02:50:50.997Z,17.46
2019-04-26T02:53:22.562Z,17.17
2019-04-26T02:56:08.593Z,17.62
2019-04-26T02:58:51.946Z,17.90
2019-04-26T03:01:20.692Z,17.90
2019-04-26T03:03:53.458Z,18.01
2019-04-26T03:06:20.639Z,18.26
2019-04-26T03:08:50.759Z,17.91
2019-04-26T03:11:22.322Z,18.12
2019-04-26T03:13:55.503Z,18.14
2019-04-26T03:16:28.705Z,18.00
2019-04-26T03:19:07.678Z,18.23
2019-04-26T03:21:39.416Z,17.97
2019-04-26T03:24:19.895Z,18.29
2019-04-26T03:27:08.062Z,18.13
2019-04-26T03:29:51.771Z,18.06
2019-04-26T03:32:33.879Z,18.06
2019-04-26T03:35:27.600Z,18.07
2019-04-26T03:38:09.572Z,17.93
2019-04-26T03:40:44.503Z,17.58
2019-04-26T03:43:28.013Z,17.56
2019-04-26T03:46:16.006Z,17.54
2019-04-26T03:48:53.790Z,17.59
2019-04-26T03:51:41.229Z,17.46
2019-04-26T03:54:19.849Z,17.07
2019-04-26T03:56:55.614Z,17.11
2019-04-26T03:59:38.980Z,17.41
2019-04-26T04:02:15.690Z,17.57
2019-04-26T04:04:57.786Z,17.42
2019-04-26T04:07:39.865Z,17.14
2019-04-26T04:10:14.464Z,17.48
2019-04-26T04:12:57.862Z,17.46
2019-04-26T04:15:29.684Z,17.68
2019-04-26T04:18:08.749Z,17.68
2019-04-26T04:20:56.361Z,17.69
2019-04-26T04:23:27.928Z,17.65
2019-04-26T04:25:57.246Z,17.64
2019-04-26T04:28:42.518Z,17.70
2019-04-26T04:31:19.918Z,17.74
2019-04-26T04:34:06.763Z,17.68
2019-04-26T04:36:42.294Z,17.84
2019-04-26T04:39:14.572Z,17.95
2019-04-26T04:42:24.510Z,18.27
2019-04-26T04:45:14.862Z,18.67
2019-04-26T04:48:30.694Z,18.92
2019-04-26T04:51:11.228Z,19.03
2019-04-26T04:53:49.725Z,18.64
2019-04-26T04:56:30.432Z,19.26
2019-04-26T04:59:01.982Z,19.73
2019-04-26T05:01:44.193Z,20.00
2019-04-26T05:04:35.173Z,20.31
2019-04-26T05:07:29.701Z,20.53
2019-04-26T05:10:10.444Z,20.70
2019-04-26T05:12:52.092Z,20.67
2019-04-26T05:15:40.896Z,20.88
2019-04-26T05:18:27.462Z,20.75
2019-04-26T05:21:10.657Z,20.60
2019-04-26T05:23:48.970Z,20.50
2019-04-26T05:26:24.673Z,20.32
2019-04-26T05:29:31.122Z,20.41
2019-04-26T05:32:28.196Z,20.66
2019-04-26T05:35:51.449Z,20.56
2019-04-26T05:38:40.614Z,20.74
2019-04-26T05:41:42.840Z,21.05
2019-04-26T05:44:38.670Z,21.43
2019-04-26T05:47:29.950Z,21.44
2019-04-26T05:50:40.229Z,21.58
2019-04-26T05:53:16.265Z,21.43
2019-04-26T05:56:18.366Z,21.80
2019-04-26T05:58:57.444Z,22.06
2019-04-26T06:01:46.407Z,21.26
2019-04-26T06:04:25.291Z,21.39
2019-04-26T06:07:16.170Z,21.58
2019-04-26T06:09:56.473Z,21.85
2019-04-26T06:12:38.706Z,21.83
2019-04-26T06:15:26.243Z,22.09
2019-04-26T06:18:11.064Z,22.23
2019-04-26T06:20:52.621Z,21.92
2019-04-26T06:23:42.919Z,21.52
2019-04-26T06:26:33.806Z,21.43
2019-04-26T06:29:32.727Z,21.57
2019-04-26T06:32:29.971Z,21.76
2019-04-26T06:35:20.034Z,21.79
2019-04-26T06:38:26.982Z,21.66
2019-04-26T06:41:21.710Z,21.77
2019-04-26T06:44:00.774Z,21.87
2019-04-26T06:46:39.589Z,22.24
2019-04-26T06:49:18.606Z,22.34
2019-04-26T06:52:02.595Z,22.11
2019-04-26T06:54:36.854Z,22.57
2019-04-26T06:57:27.892Z,22.44
2019-04-26T07:00:10.341Z,22.38
2019-04-26T07:03:10.529Z,22.38
2019-04-26T07:05:42.059Z,22.27
2019-04-26T07:08:25.519Z,22.07
2019-04-26T07:11:11.757Z,22.70
2019-04-26T07:13:59.302Z,22.89
2019-04-26T07:16:37.846Z,23.49
2019-04-26T07:19:31.991Z,23.70
2019-04-26T07:22:16.621Z,23.68
2019-04-26T07:25:09.055Z,24.09
2019-04-26T07:27:43.536Z,24.10
2019-04-26T07:30:32.947Z,22.77
2019-04-26T07:33:31.801Z,23.02
2019-04-26T07:36:12.051Z,23.94
2019-04-26T07:39:16.699Z,23.58
2019-04-26T07:42:01.687Z,23.99
2019-04-26T07:44:37.732Z,24.11
2019-04-26T07:47:25.576Z,25.06
2019-04-26T07:50:09.447Z,24.68
2019-04-26T07:52:53.129Z,24.99
2019-04-26T07:55:45.863Z,24.90
2019-04-26T07:58:29.167Z,25.14
2019-04-26T08:01:37.392Z,24.99
2019-04-26T08:04:11.524Z,25.41
2019-04-26T08:06:58.335Z,24.65
2019-04-26T08:09:29.000Z,25.13
2019-04-26T08:12:06.112Z,25.38
2019-04-26T08:14:50.851Z,25.95
2019-04-26T08:17:29.511Z,25.99
2019-04-26T08:20:01.848Z,26.13
2019-04-26T08:22:33.835Z,25.73
2019-04-26T08:25:06.683Z,26.53
2019-04-26T08:27:36.353Z,26.26
2019-04-26T08:30:17.443Z,26.12
2019-04-26T08:32:54.010Z,26.70
2019-04-26T08:35:27.165Z,27.11
2019-04-26T08:37:58.748Z,27.44
2019-04-26T08:40:31.303Z,26.44
2019-04-26T08:43:16.396Z,26.78
2019-04-26T08:46:03.152Z,26.49
2019-04-26T08:48:32.377Z,26.62
2019-04-26T08:51:04.964Z,26.47
2019-04-26T08:53:36.462Z,26.84
2019-04-26T08:56:07.343Z,26.97
2019-04-26T08:58:38.932Z,27.48
2019-04-26T09:01:12.141Z,27.59
2019-04-26T09:03:45.334Z,28.00
2019-04-26T09:06:21.721Z,28.18
2019-04-26T09:08:53.318Z,28.28
2019-04-26T09:11:30.183Z,27.51
2019-04-26T09:13:57.746Z,27.34
2019-04-26T09:16:26.441Z,27.02
2019-04-26T09:18:59.416Z,26.73
2019-04-26T09:21:28.922Z,26.81
2019-04-26T09:24:01.656Z,26.21
2019-04-26T09:26:42.476Z,26.18
2019-04-26T09:29:21.417Z,27.31
2019-04-26T09:32:00.146Z,27.92
2019-04-26T09:34:41.319Z,27.02
2019-04-26T09:37:10.536Z,27.44
2019-04-26T09:39:41.613Z,26.82
2019-04-26T09:42:10.994Z,27.30
2019-04-26T09:44:59.625Z,28.25
2019-04-26T09:47:29.792Z,28.77
2019-04-26T09:50:18.286Z,28.15
2019-04-26T09:52:48.491Z,29.17
2019-04-26T09:55:17.049Z,27.65
2019-04-26T09:57:45.613Z,26.94
2019-04-26T10:00:19.027Z,27.24
2019-04-26T10:02:47.548Z,27.20
2019-04-26T10:05:17.678Z,27.09
2019-04-26T10:07:46.483Z,27.75
2019-04-26T10:10:22.658Z,28.76
2019-04-26T10:12:48.633Z,28.08
2019-04-26T10:15:35.269Z,28.39
2019-04-26T10:18:04.560Z,27.13
2019-04-26T10:20:33.220Z,27.78
2019-04-26T10:23:01.724Z,28.96
2019-04-26T10:25:30.571Z,29.44
2019-04-26T10:27:59.068Z,29.67
2019-04-26T10:30:27.596Z,28.80
2019-04-26T10:32:58.254Z,28.25
2019-04-26T10:35:26.325Z,28.59
2019-04-26T10:37:54.889Z,28.41
2019-04-26T10:40:35.098Z,28.09
2019-04-26T10:42:53.730Z,27.89
2019-04-26T10:45:22.786Z,27.36
2019-04-26T10:47:52.080Z,27.57
2019-04-26T10:50:21.255Z,27.65
2019-04-26T10:52:57.107Z,27.43
2019-04-26T10:55:39.479Z,27.45
2019-04-26T10:58:21.432Z,26.67
2019-04-26T11:00:52.763Z,27.09
2019-04-26T11:03:22.113Z,26.79
2019-04-26T11:05:53.679Z,26.04
2019-04-26T11:08:21.267Z,26.14
2019-04-26T11:10:50.128Z,26.19
2019-04-26T11:13:18.701Z,26.22
2019-04-26T11:15:47.453Z,26.47
2019-04-26T11:18:19.902Z,25.88
2019-04-26T11:20:46.723Z,26.60
2019-04-26T11:23:15.375Z,26.26
2019-04-26T11:25:43.864Z,26.84
2019-04-26T11:28:12.358Z,26.96
2019-04-26T11:30:41.145Z,27.03
2019-04-26T11:33:10.995Z,26.59
2019-04-26T11:35:39.858Z,25.70
2019-04-26T11:38:08.656Z,25.56
2019-04-26T11:40:37.778Z,25.83
2019-04-26T11:43:06.351Z,26.02
2019-04-26T11:45:34.871Z,26.53
2019-04-26T11:48:03.490Z,27.12
2019-04-26T11:50:31.966Z,27.18
2019-04-26T11:53:00.493Z,27.04
2019-04-26T11:55:29.673Z,28.03
2019-04-26T11:57:59.200Z,28.63
2019-04-26T12:00:29.670Z,29.19
2019-04-26T12:02:58.159Z,28.78
2019-04-26T12:05:37.353Z,29.11
2019-04-26T12:08:16.753Z,29.03
2019-04-26T12:10:45.903Z,28.34
2019-04-26T12:13:14.479Z,28.73
2019-04-26T12:15:43.974Z,29.45
2019-04-26T12:18:13.230Z,30.09
2019-04-26T12:20:41.754Z,29.25
2019-04-26T12:23:13.719Z,28.95
2019-04-26T12:25:43.577Z,28.32
2019-04-26T12:28:13.906Z,28.80
2019-04-26T12:30:42.475Z,28.89
2019-04-26T12:33:10.966Z,28.99
2019-04-26T12:35:39.457Z,29.34
2019-04-26T12:38:07.977Z,29.56
2019-04-26T12:40:36.473Z,28.89
2019-04-26T12:43:05.114Z,28.50
2019-04-26T12:45:35.243Z,29.35
2019-04-26T12:48:07.909Z,28.32
2019-04-26T12:50:37.727Z,27.75
2019-04-26T12:53:05.977Z,28.10
2019-04-26T12:55:34.540Z,27.50
2019-04-26T12:58:03.075Z,27.12
2019-04-26T13:00:32.923Z,27.70
2019-04-26T13:03:03.590Z,27.28
2019-04-26T13:05:33.640Z,27.28
2019-04-26T13:08:02.233Z,27.16
2019-04-26T13:10:35.384Z,26.83
2019-04-26T13:13:06.909Z,27.05
2019-04-26T13:16:01.718Z,26.18
2019-04-26T13:18:31.391Z,26.77
2019-04-26T13:21:02.958Z,27.14
2019-04-26T13:23:31.348Z,27.44
2019-04-26T13:26:01.426Z,26.68
2019-04-26T13:28:30.259Z,27.40
2019-04-26T13:31:01.921Z,26.93
2019-04-26T13:33:29.269Z,27.62
2019-04-26T13:36:03.152Z,27.34
2019-04-26T13:38:31.686Z,27.67
2019-04-26T13:41:04.819Z,27.99
2019-04-26T13:43:30.477Z,28.48
2019-04-26T13:46:04.745Z,27.91
2019-04-26T13:48:49.778Z,27.64
2019-04-26T13:51:21.355Z,28.19
2019-04-26T13:53:54.422Z,28.57
2019-04-26T13:56:26.366Z,28.70
2019-04-26T13:58:58.348Z,28.70
2019-04-26T14:01:26.046Z,29.45
2019-04-26T14:03:55.893Z,30.00
2019-04-26T14:06:26.538Z,28.75
2019-04-26T14:08:58.121Z,28.05
2019-04-26T14:11:28.037Z,28.24
2019-04-26T14:14:00.176Z,28.34
2019-04-26T14:16:27.495Z,28.75
2019-04-26T14:18:56.125Z,28.97
2019-04-26T14:21:24.677Z,29.34
2019-04-26T14:24:11.103Z,29.34
2019-04-26T14:26:41.510Z,29.04
2019-04-26T14:29:10.126Z,28.61
2019-04-26T14:31:38.610Z,28.54
2019-04-26T14:34:07.208Z,28.87
2019-04-26T14:36:35.735Z,28.36
2019-04-26T14:39:10.756Z,28.29
2019-04-26T14:41:38.845Z,28.42
2019-04-26T14:44:15.461Z,27.92
2019-04-26T14:46:48.204Z,27.42
2019-04-26T14:49:07.979Z,27.53
2019-04-26T14:51:36.497Z,27.61
2019-04-26T14:54:07.411Z,26.93
2019-04-26T14:56:35.764Z,27.65
2019-04-26T14:59:08.117Z,27.50
2019-04-26T15:01:52.303Z,27.29
2019-04-26T15:04:34.255Z,27.19
2019-04-26T15:07:05.443Z,26.99
2019-04-26T15:09:36.046Z,26.97
2019-04-26T15:12:03.599Z,27.44
2019-04-26T15:14:33.297Z,27.92
2019-04-26T15:17:02.775Z,27.93
2019-04-26T15:19:34.640Z,27.50
2019-04-26T15:22:04.070Z,27.24
2019-04-26T15:24:35.145Z,27.30
2019-04-26T15:27:03.405Z,27.44
2019-04-26T15:29:32.367Z,27.22
2019-04-26T15:32:00.889Z,27.60
2019-04-26T15:34:29.536Z,27.43
2019-04-26T15:36:58.203Z,27.64
2019-04-26T15:39:33.014Z,27.05
2019-04-26T15:42:03.268Z,27.22
2019-04-26T15:44:36.442Z,26.89
2019-04-26T15:47:10.306Z,26.89
2019-04-26T15:49:40.438Z,27.28
2019-04-26T15:52:09.055Z,26.91
2019-04-26T15:54:37.535Z,27.17
2019-04-26T15:57:06.801Z,26.60
2019-04-26T15:59:35.419Z,26.86
2019-04-26T16:02:04.015Z,27.12
2019-04-26T16:04:33.537Z,26.82
2019-04-26T16:07:02.557Z,26.64
2019-04-26T16:09:32.504Z,26.59
2019-04-26T16:12:01.195Z,26.94
2019-04-26T16:14:36.669Z,26.95
2019-04-26T16:17:04.837Z,27.19
2019-04-26T16:19:31.952Z,27.12
2019-04-26T16:22:00.450Z,26.71
2019-04-26T16:24:29.180Z,27.06
2019-04-26T16:26:57.843Z,26.66
2019-04-26T16:29:33.991Z,26.36
2019-04-26T16:32:21.977Z,26.38
2019-04-26T16:34:52.826Z,26.20
2019-04-26T16:37:23.644Z,25.71
2019-04-26T16:39:51.944Z,25.57
2019-04-26T16:42:20.810Z,25.77
2019-04-26T16:44:49.322Z,25.43
2019-04-26T16:47:17.842Z,25.61
2019-04-26T16:49:46.727Z,25.65
2019-04-26T16:52:15.208Z,25.57
2019-04-26T16:54:43.699Z,25.49
2019-04-26T16:57:12.517Z,25.32
2019-04-26T16:59:47.702Z,24.63
2019-04-26T17:02:15.557Z,24.67
2019-04-26T17:04:43.603Z,24.27
2019-04-26T17:07:13.443Z,24.06
2019-04-26T17:09:55.706Z,24.07
2019-04-26T17:12:15.061Z,24.21
2019-04-26T17:14:47.757Z,24.51
2019-04-26T17:17:14.242Z,24.20
2019-04-26T17:19:43.289Z,24.40
2019-04-26T17:22:41.990Z,24.39
2019-04-26T17:25:02.597Z,24.21
2019-04-26T17:27:32.875Z,24.15
2019-04-26T17:30:03.114Z,24.35
2019-04-26T17:32:35.019Z,24.49
2019-04-26T17:35:07.341Z,24.39
2019-04-26T17:37:34.998Z,24.54
2019-04-26T17:40:03.851Z,24.56
2019-04-26T17:42:36.472Z,24.75
2019-04-26T17:45:07.318Z,25.03
2019-04-26T17:47:39.865Z,24.73
2019-04-26T17:50:08.471Z,25.01
2019-04-26T17:52:37.753Z,25.12
2019-04-26T17:55:07.794Z,24.99
2019-04-26T17:57:37.225Z,24.95
2019-04-26T18:00:11.371Z,25.19
2019-04-26T18:02:41.931Z,25.25
2019-04-26T18:05:08.572Z,25.22
2019-04-26T18:07:43.354Z,25.03
2019-04-26T18:10:08.157Z,25.04
2019-04-26T18:12:40.682Z,25.14
2019-04-26T18:15:11.515Z,25.01
2019-04-26T18:17:40.469Z,24.93
2019-04-26T18:20:10.840Z,24.94
2019-04-26T18:22:53.209Z,24.89
2019-04-26T18:25:23.436Z,24.78
2019-04-26T18:27:53.492Z,24.60
2019-04-26T18:30:23.644Z,23.87
2019-04-26T18:32:52.286Z,23.52
2019-04-26T18:35:20.786Z,23.96
2019-04-26T18:37:50.241Z,24.08
2019-04-26T18:40:20.630Z,24.05
2019-04-26T18:42:49.150Z,23.93
2019-04-26T18:45:25.881Z,23.90
2019-04-26T18:47:47.948Z,24.01
2019-04-26T18:50:16.606Z,23.98
2019-04-26T18:53:03.415Z,23.86
2019-04-26T18:55:34.481Z,23.82
2019-04-26T18:58:05.356Z,23.67
2019-04-26T19:00:37.212Z,23.70
2019-04-26T19:03:05.949Z,23.73
2019-04-26T19:05:34.737Z,23.73
2019-04-26T19:08:05.124Z,23.77
2019-04-26T19:10:34.351Z,23.80
2019-04-26T19:13:13.686Z,23.83
2019-04-26T19:15:47.259Z,23.78
2019-04-26T19:18:23.301Z,23.72
2019-04-26T19:20:53.506Z,23.66
2019-04-26T19:23:24.427Z,23.72
2019-04-26T19:25:52.267Z,23.59
2019-04-26T19:28:22.334Z,23.31
2019-04-26T19:30:53.134Z,23.36
2019-04-26T19:33:21.675Z,23.23
2019-04-26T19:35:50.362Z,23.19
2019-04-26T19:38:18.895Z,23.28
2019-04-26T19:40:48.071Z,23.17
2019-04-26T19:43:28.305Z,23.04
2019-04-26T19:46:01.438Z,23.09
2019-04-26T19:48:49.544Z,23.00
2019-04-26T19:51:38.009Z,22.83
2019-04-26T19:54:08.188Z,22.95
2019-04-26T19:56:41.803Z,22.89
2019-04-26T19:59:12.133Z,22.76
2019-04-26T20:01:41.964Z,22.84
2019-04-26T20:04:11.290Z,23.01
2019-04-26T20:06:41.476Z,23.08
2019-04-26T20:09:11.882Z,22.91
2019-04-26T20:11:42.143Z,22.97
2019-04-26T20:14:12.527Z,23.06
2019-04-26T20:16:43.384Z,22.93
2019-04-26T20:19:15.069Z,22.89
2019-04-26T20:21:45.420Z,22.79
2019-04-26T20:24:12.824Z,22.62
2019-04-26T20:26:44.269Z,22.62
2019-04-26T20:29:12.849Z,22.63
2019-04-26T20:31:47.767Z,22.61
2019-04-26T20:34:18.377Z,22.56
2019-04-26T20:36:47.843Z,22.43
2019-04-26T20:39:21.003Z,22.20
2019-04-26T20:41:47.117Z,22.27
2019-04-26T20:44:15.649Z,22.33
2019-04-26T20:46:44.184Z,22.33
2019-04-26T20:49:12.744Z,22.16
2019-04-26T20:51:46.114Z,22.17
2019-04-26T20:54:16.430Z,22.25
2019-04-26T20:56:46.226Z,21.98
2019-04-26T20:59:16.752Z,21.49
2019-04-26T21:01:46.489Z,21.65
2019-04-26T21:04:33.891Z,21.75
2019-04-26T21:06:43.870Z,21.83
2019-04-26T21:09:14.015Z,21.67
2019-04-26T21:11:42.594Z,21.67
2019-04-26T21:14:12.320Z,21.41
2019-04-26T21:16:43.675Z,21.22
2019-04-26T21:19:13.793Z,21.35
2019-04-26T21:21:47.723Z,21.40
2019-04-26T21:24:13.352Z,21.06
2019-04-26T21:26:46.680Z,21.18
2019-04-26T21:29:20.441Z,21.30
2019-04-26T21:31:53.589Z,21.39
2019-04-26T21:34:23.732Z,21.40
2019-04-26T21:37:00.362Z,21.10
2019-04-26T21:39:30.525Z,21.21
2019-04-26T21:42:12.303Z,20.79
2019-04-26T21:44:44.680Z,20.67
2019-04-26T21:47:11.040Z,20.62
2019-04-26T21:49:39.587Z,20.70
2019-04-26T21:52:08.191Z,20.45
2019-04-26T21:54:36.690Z,20.29
2019-04-26T21:57:05.279Z,20.06
2019-04-26T21:59:40.625Z,20.21
2019-04-26T22:02:06.802Z,20.22
2019-04-26T22:04:37.688Z,20.07
2019-04-26T22:07:07.805Z,19.91
2019-04-26T22:09:40.586Z,19.74
2019-04-26T22:12:10.909Z,19.66
2019-04-26T22:14:41.113Z,19.39
2019-04-26T22:17:27.224Z,19.61
2019-04-26T22:20:15.812Z,19.58
2019-04-26T22:22:50.656Z,19.26
2019-04-26T22:25:20.863Z,19.34
2019-04-26T22:27:49.389Z,19.57
2019-04-26T22:30:28.178Z,19.59
2019-04-26T22:32:58.114Z,19.30
2019-04-26T22:35:22.854Z,18.99
2019-04-26T22:37:51.425Z,19.19
2019-04-26T22:40:20.004Z,19.13
2019-04-26T22:42:50.255Z,19.14
2019-04-26T22:45:39.598Z,18.84
2019-04-26T22:48:16.334Z,18.81
2019-04-26T22:50:43.589Z,18.73
2019-04-26T22:53:12.315Z,18.57
2019-04-26T22:55:40.812Z,18.68
2019-04-26T22:58:09.328Z,18.95
2019-04-26T23:00:39.117Z,18.95
2019-04-26T23:03:08.055Z,18.40
2019-04-26T23:05:39.103Z,18.36
2019-04-26T23:08:07.295Z,18.54
2019-04-26T23:10:43.275Z,18.62
2019-04-26T23:13:23.146Z,18.21
2019-04-26T23:15:53.429Z,17.95
2019-04-26T23:18:42.570Z,18.06
2019-04-26T23:21:26.640Z,18.29
2019-04-26T23:23:55.131Z,18.15
2019-04-26T23:26:23.633Z,17.95
2019-04-26T23:28:53.514Z,18.35
2019-04-26T23:31:23.611Z,18.42
2019-04-26T23:33:53.734Z,18.37
2019-04-26T23:36:23.972Z,17.87
2019-04-26T23:38:53.195Z,17.57
2019-04-26T23:41:23.609Z,17.86
2019-04-26T23:43:56.481Z,17.41
2019-04-26T23:46:25.706Z,17.45
2019-04-26T23:48:53.861Z,17.54
2019-04-26T23:51:23.814Z,17.25
2019-04-26T23:53:54.944Z,17.58
2019-04-26T23:56:25.261Z,17.90
2019-04-26T23:58:53.261Z,18.05
